모두
Sisseton Muni Airport (Sisseton, SD) 8D3 기상
|
Sisseton, SD (8D3)
맑은 하늘
가벼운 바람 |
|
26 °C |
There is no TAF data available at 8D3 or any nearby airports.
최근 8D3 METAR 이력
| Date | Time (CDT) | Flight Rules | Wind Dir. | Speed | Type | Height AGL (ft) | Visibility | Temp (°C) | Temp (°F) | Dew Point (°C) | Dew Point (°F) | Rel. Humid. | Pressure | Density Altitude | Remarks |
|---|---|---|---|---|---|---|---|---|---|---|---|---|---|---|---|
| 06-9월 | 14:56 | n/a | 160° | 5 kt | Missing | 26° | 78° | 23° | 73° | 87% | 29.97 in Hg | 2,670 ft | |||
| 06-9월 | 13:56 | n/a | 140° | 6 kt | Missing | 24° | 75° | 23° | 73° | 91% | 29.98 in Hg | 2,420 ft | |||
| 06-9월 | 12:56 | n/a | 150° | 6 kt | Missing | 24° | 75° | 23° | 73° | 94% | 29.99 in Hg | 2,410 ft | |||
| 06-9월 | 11:56 | n/a | 160° | 8 kt | Missing | 24° | 75° | 23° | 73° | 94% | 30.00 in Hg | 2,400 ft | |||
| 06-9월 | 10:56 | n/a | 130° | 10 kt | Missing | 24° | 75° | 22° | 71° | 90% | 29.99 in Hg | 2,410 ft | |||
| 06-9월 | 09:56 | n/a | 150° | 8 kt | Missing | 23° | 73° | 22° | 71° | 94% | 29.99 in Hg | 2,290 ft | |||
| 06-9월 | 08:56 | n/a | 150° | 10 kt | Missing | 23° | 73° | 22° | 71° | 96% | 29.99 in Hg | 2,290 ft | |||
| 06-9월 | 07:56 | n/a | 150° | 10 kt | Missing | 22° | 71° | 22° | 71° | 97% | 29.98 in Hg | 2,180 ft | |||
| 06-9월 | 06:56 | n/a | 150° | 9 kt | Missing | 22° | 71° | 22° | 71° | 97% | 29.98 in Hg | 2,180 ft | |||
| 06-9월 | 05:56 | n/a | 150° | 7 kt | Missing | 23° | 73° | 22° | 71° | 96% | 29.98 in Hg | 2,300 ft | |||
| 06-9월 | 04:56 | n/a | 170° | 4 kt | Missing | 22° | 71° | 22° | 71° | 97% | 29.98 in Hg | 2,180 ft | |||
| 06-9월 | 03:56 | n/a | 170° | 3 kt | Missing | 22° | 71° | 22° | 71° | 97% | 29.97 in Hg | 2,190 ft | |||
| 06-9월 | 02:56 | n/a | 160° | 5 kt | Missing | 22° | 71° | 22° | 71° | 97% | 29.97 in Hg | 2,190 ft | |||
| 06-9월 | 01:56 | n/a | 200° | 5 kt | Missing | 22° | 71° | 21° | 69° | 96% | 29.98 in Hg | 2,180 ft | |||
| 06-9월 | 00:56 | n/a | 200° | 4 kt | Missing | 22° | 71° | 22° | 71° | 97% | 29.98 in Hg | 2,180 ft | |||
| 05-9월 | 23:56 | n/a | 140° | 5 kt | Missing | 22° | 71° | 22° | 71° | 97% | 29.98 in Hg | 2,180 ft | |||
| 05-9월 | 22:56 | n/a | 130° | 4 kt | Missing | 23° | 73° | 22° | 71° | 94% | 29.97 in Hg | 2,310 ft | |||
| 05-9월 | 21:56 | n/a | 50° | 3 kt | Missing | 22° | 71° | 20° | 68° | 87% | 29.97 in Hg | 2,190 ft | |||
| 05-9월 | 20:56 | n/a | 120° | 6 kt | Missing | 23° | 73° | 21° | 69° | 85% | 29.95 in Hg | 2,330 ft | |||
| 05-9월 | 19:56 | n/a | 130° | 7 kt | Missing | 26° | 78° | 20° | 68° | 71% | 29.94 in Hg | 2,700 ft | |||
| 05-9월 | 18:56 | n/a | 130° | 7 kt | Missing | 28° | 82° | 19° | 66° | 60% | 29.94 in Hg | 2,940 ft | |||
| 05-9월 | 17:56 | n/a | 160° | 8 kt | Missing | 30° | 86° | 19° | 66° | 53% | 29.91 in Hg | 3,210 ft | |||
| 05-9월 | 16:56 | n/a | 140° | 11 kt | Missing | 30° | 86° | 19° | 66° | 51% | 29.90 in Hg | 3,220 ft | Wind gusting to 17 KT | ||
| 05-9월 | 15:56 | n/a | 140° | 10 kt | Missing | 29° | 84° | 19° | 66° | 53% | 29.93 in Hg | 3,070 ft | Wind gusting to 16 KT |
로그인
| 귀하의 브라우저는 지원되지 않습니다.. 브라우저를 업그레이드하세요 |
